Pagrindinis puslapis
METAR-TAF:

METAR-TAF

Oro uostai :

Piarko tarptautinis oro uostas

Port of Speinas, Trinidadas, Trinidadas ir Tobagas

platuma: 10-37N, ilguma: 061-21W, Aukštis: 12 m

Dabartinis oras

Ataskaita buvo paskelbta 1 valandą ir 5 minutes, ne 03:00 UTC
Ramus vėjas
Temperatūra 27°C
Drėgmė 89%
Slėgis 1012 hPa
Matomumas 10 km arba daugiau
Mažai debesys ne aukštis 1500 ft

METAR: TTPP 220300Z 00000KT 9999 FEW015 27/25 Q1012 NOSIG

Laikas: 00:05 (04:05 UTC)

Prognozė

Ataskaita buvo paskelbta 6 valandos ir 5 minutes, ne 22:00 UTC
Prognozė galioja nuo 22 metu 00 UTC su 22 metu 24 UTC
Vėjas kt iš Šiaurės
Matomumas 10 km arba daugiau
Mažai debesys ne aukštis 1800 ft
Tapsmas
nuo 22 metu 12 UTC su 22 metu 14 UTC
Vėjas 8 kt iš Rytų/Pietryčių
Išsisklaidę debesys ne aukštis 2200 ft
Tikimybė 40% :
Laikinai
nuo 22 metu 18 UTC su 22 metu 22 UTC
Mažai debesys ne aukštis 1200 ft, Liūtiniai kamuoliniai debesys.
Išsisklaidę debesys ne aukštis 1800 ft

TAF: TTPP 212200Z 2200/2224 00000KT 9999 FEW018 BECMG 2212/2214 11008KT SCT022 PROB40 TEMPO 2218/2222 FEW012CB SCT018

Orai ataskaitas ir orų prognozės (METAR, TAF).

turimą stotys yra geltonos ir raudonos taškus žemėlapyje.

Perkelti pele per norėdami pamatyti stoties vardą.

Tada spustelėkite, norėdami matyti oro stebėjimo ir prognozės.

Norėdami pakeisti žemėlapį: spustelėkite ant žalios mygtukų su juodo kryžiaus žemyn,; žalią mygtuką su brūkšneliu, jei norite nutolinti; arba žalių rodyklių gretimoms žemėlapius.


METAR-TAF: